Latest Weather Observations for Stenhouse Bay

IDS60801

Issued at 2:35 pm CST Wednesday 23 July 2014 (issued every 30 minutes, with the page automatically refreshed every 10 minutes)

About weather observations | Map of weather stations | Latest weather observations for SA | Other Formats
Station Details ID: 022049 Name: STENHOUSE BAY Lat: -35.28 Lon: 136.94 Height: 42.0 m
Data from the previous 72 hours. | See also: Recent months at Stenhouse Bay
Date/Time
CST
Temp
°C
App
Temp
°C
Dew
Point
Rel
Hum
%
Delta-T
°C
Wind Press
QNH
hPa
Press
MSL
hPa
Rain
since 9 am
mm
Dir
 
Spd
km/h
Gust
km/h
Spd
kts
Gust
kts
23/02:30pm 12.1 5.3 10.7 91 0.7 ENE 37 48 20 26 1009.1 1009.1 2.0
23/02:00pm 12.2 6.1 10.6 90 0.8 ENE 33 48 18 26 1009.7 - 2.0
23/01:30pm 12.0 6.2 10.7 92 0.7 ENE 32 41 17 22 1010.1 1010.1 2.0
23/01:00pm 11.8 7.1 10.5 92 0.7 ENE 26 39 14 21 1011.1 - 2.0
23/12:30pm 11.4 7.5 10.8 96 0.3 NE 22 28 12 15 1012.3 1012.3 2.0
23/12:00pm 11.5 6.9 10.9 96 0.3 NE 26 35 14 19 1013.5 1013.5 1.8
23/11:30am 11.2 7.2 10.6 96 0.3 N 22 30 12 16 1014.5 1014.5 1.2
23/11:00am 11.3 6.0 10.0 92 0.7 N 28 39 15 21 1014.8 - 0.4
23/10:30am 12.5 7.6 8.6 77 1.9 N 24 32 13 17 1015.2 1015.2 0.0
23/10:00am 13.1 8.6 7.1 67 2.9 N 20 28 11 15 1015.6 - 0.0
23/09:30am 13.2 7.7 6.1 62 3.4 N 24 30 13 16 1015.9 1015.9 0.0
23/09:00am 12.9 8.1 5.6 61 3.4 N 20 26 11 14 1015.5 1015.5 0.0
23/08:30am 12.5 8.3 5.7 63 3.2 N 17 24 9 13 1015.5 1015.5 0.0
23/08:00am 12.1 8.0 6.2 67 2.8 N 17 22 9 12 1015.5 - 0.0
23/07:30am 11.9 7.9 6.8 71 2.4 N 17 22 9 12 1015.6 1015.6 0.0
23/07:00am 12.1 9.2 6.6 69 2.6 N 11 17 6 9 1015.5 - 0.0
23/06:30am 12.5 8.5 6.8 68 2.7 NE 17 24 9 13 1015.5 1015.5 0.0
23/06:00am 11.8 8.4 5.9 67 2.8 NNE 13 19 7 10 1015.7 1015.7 0.0
23/05:30am 11.1 7.8 6.3 72 2.3 NNE 13 15 7 8 1016.1 1016.1 0.0
23/05:00am 11.3 8.2 5.6 68 2.6 NNE 11 15 6 8 1016.2 - 0.0
23/04:30am 11.3 7.8 5.6 68 2.6 NNE 13 15 7 8 1016.0 1016.0 0.0
23/04:00am 11.7 8.3 6.0 68 2.7 NE 13 17 7 9 1016.3 - 0.0
23/03:30am 11.9 8.9 6.0 67 2.8 NE 11 15 6 8 1016.8 1016.8 0.0
23/03:00am 11.9 8.4 5.5 65 3.0 NNE 13 17 7 9 1016.9 1016.9 0.0
23/02:30am 11.8 8.4 5.7 66 2.8 NNE 13 17 7 9 1017.2 1017.2 0.0
23/02:00am 11.4 8.0 5.7 68 2.6 NNE 13 17 7 9 1017.6 - 0.0
23/01:30am 11.5 7.9 6.6 72 2.3 NNE 15 20 8 11 1017.7 1017.7 0.0
23/01:00am 12.2 9.1 8.9 80 1.7 NE 15 20 8 11 1017.8 - 0.0
23/12:30am 12.0 9.0 9.2 83 1.4 NE 15 20 8 11 1018.1 1018.1 0.0
23/12:00am 12.0 9.1 9.6 85 1.2 NE 15 20 8 11 1018.7 1018.7 0.0
 
Date/Time
CST
Temp
°C
App
Temp
°C
Dew
Point
Rel
Hum
%
Delta-T
°C
Wind Press
QNH
hPa
Press
MSL
hPa
Rain
since 9 am
mm
Dir
 
Spd
km/h
Gust
km/h
Spd
kts
Gust
kts
22/11:30pm 12.3 9.0 9.5 83 1.4 NE 17 22 9 12 1019.1 1019.1 0.0
22/11:00pm 12.0 8.6 9.0 82 1.5 NE 17 20 9 11 1019.5 - 0.0
22/10:30pm 11.8 8.4 9.2 84 1.3 ENE 17 22 9 12 1019.6 1019.6 0.0
22/10:00pm 11.9 7.7 8.4 79 1.7 ENE 20 28 11 15 1019.5 - 0.0
22/09:30pm 12.1 8.2 7.2 72 2.4 ENE 17 22 9 12 1019.7 1019.7 0.0
22/09:00pm 12.2 9.8 8.5 78 1.8 NE 11 15 6 8 1019.9 1019.9 0.0
22/08:30pm 11.3 9.3 8.5 83 1.4 NE 9 13 5 7 1020.2 1020.2 0.0
22/08:00pm 12.0 9.3 9.0 82 1.5 NE 13 19 7 10 1020.0 - 0.0
22/07:30pm 12.2 9.7 9.6 84 1.3 ENE 13 19 7 10 1020.3 1020.3 0.0
22/07:00pm 12.4 9.9 9.8 84 1.3 ENE 13 19 7 10 1020.3 - 0.0
22/06:30pm 12.6 9.7 9.6 82 1.5 ENE 15 19 8 10 1020.3 1020.3 0.0
22/06:00pm 12.8 9.7 10.2 84 1.3 ENE 17 20 9 11 1020.2 1020.2 0.0
22/05:30pm 13.0 10.3 10.4 84 1.3 ENE 15 20 8 11 1020.1 1020.1 0.0
22/05:00pm 13.5 10.5 10.5 82 1.6 E 17 24 9 13 1020.2 - 0.0
22/04:30pm 14.2 11.1 10.4 78 2.0 E 17 26 9 14 1019.9 1019.9 0.0
22/04:00pm 14.7 11.7 10.5 76 2.2 E 17 22 9 12 1019.5 - 0.0
22/03:30pm 15.2 12.6 10.8 75 2.3 E 15 20 8 11 1019.9 1019.9 0.0
22/03:00pm 15.4 12.8 10.8 74 2.4 E 15 19 8 10 1020.1 1020.1 0.0
22/02:30pm 15.7 13.2 10.9 73 2.6 E 15 19 8 10 1020.4 1020.4 0.0
22/02:00pm 15.8 13.8 11.6 76 2.3 ESE 13 17 7 9 1020.6 - 0.0
22/01:30pm 15.7 13.6 11.1 74 2.5 E 13 15 7 8 1020.9 1020.9 0.0
22/01:00pm 15.7 13.5 10.9 73 2.6 E 13 17 7 9 1021.4 - 0.0
22/12:30pm 15.8 13.7 11.0 73 2.6 E 13 17 7 9 1021.8 1021.8 0.0
22/12:00pm 15.5 14.0 10.7 73 2.5 E 9 11 5 6 1022.3 1022.3 0.0
22/11:30am 15.3 14.1 10.3 72 2.6 E 7 9 4 5 1022.8 1022.8 0.0
22/11:00am 15.4 13.6 7.9 61 3.8 ENE 7 9 4 5 1023.0 - 0.0
22/10:30am 15.7 13.3 7.2 57 4.2 NNE 9 13 5 7 1023.4 1023.4 0.0
22/10:00am 14.9 13.0 7.5 61 3.7 N 7 11 4 6 1023.5 - 0.0
22/09:30am 13.4 11.3 6.7 64 3.2 NE 7 11 4 6 1023.2 1023.2 0.0
22/09:00am 12.8 11.3 8.3 74 2.2 NE 6 7 3 4 1023.1 1023.1 0.0
22/08:30am 12.3 10.6 8.2 76 2.0 NE 7 9 4 5 1022.9 1022.9 0.0
22/08:00am 9.8 8.1 7.4 85 1.1 ENE 6 9 3 5 1022.6 - 0.0
22/07:30am 9.1 7.1 6.2 82 1.3 NE 6 7 3 4 1022.5 1022.5 0.0
22/07:00am 8.3 6.1 5.2 81 1.4 N 6 7 3 4 1022.5 - 0.0
22/06:30am 7.8 5.6 5.4 85 1.1 N 6 9 3 5 1022.2 1022.2 0.0
22/06:00am 7.4 5.0 5.2 86 1.0 N 7 9 4 5 1022.1 1022.1 0.0
22/05:30am 7.6 5.4 5.2 85 1.1 N 6 7 3 4 1021.9 1021.9 0.0
22/05:00am 7.8 5.4 5.4 85 1.1 N 7 11 4 6 1022.0 - 0.0
22/04:30am 8.1 5.8 5.6 84 1.1 N 7 9 4 5 1021.9 1021.9 0.0
22/04:00am 8.3 6.0 5.8 84 1.1 N 7 9 4 5 1021.9 - 0.0
22/03:30am 8.7 6.4 5.8 82 1.3 NNE 7 11 4 6 1021.8 1021.8 0.0
22/03:00am 8.3 5.7 5.9 85 1.1 NNE 9 11 5 6 1021.8 1021.8 0.0
22/02:30am 8.4 6.1 5.7 83 1.2 N 7 11 4 6 1021.9 1021.9 0.0
22/02:00am 8.8 6.2 6.1 83 1.2 N 9 13 5 7 1021.8 - 0.0
22/01:30am 8.7 6.4 5.8 82 1.3 N 7 11 4 6 1021.9 1021.9 0.0
22/01:00am 8.3 5.6 5.4 82 1.3 N 9 13 5 7 1022.0 - 0.0
22/12:30am 9.1 6.9 6.2 82 1.3 NNE 7 11 4 6 1022.2 1022.2 0.0
22/12:00am 9.1 6.8 7.4 89 0.8 NNE 9 11 5 6 1022.3 1022.3 0.0
 
Date/Time
CST
Temp
°C
App
Temp
°C
Dew
Point
Rel
Hum
%
Delta-T
°C
Wind Press
QNH
hPa
Press
MSL
hPa
Rain
since 9 am
mm
Dir
 
Spd
km/h
Gust
km/h
Spd
kts
Gust
kts
21/11:30pm 9.3 7.0 7.4 88 0.9 NNE 9 11 5 6 1022.2 1022.2 0.0
21/11:00pm 9.3 7.3 7.3 87 0.9 NE 7 11 4 6 1022.2 - 0.0
21/10:30pm 8.8 7.3 6.8 87 0.9 NNE 4 6 2 3 1022.2 1022.2 0.0
21/10:00pm 8.3 6.3 6.4 88 0.9 NNE 6 7 3 4 1022.2 - 0.0
21/09:30pm 8.8 7.0 7.1 89 0.8 N 6 7 3 4 1022.1 1022.1 0.0
21/09:00pm 9.2 7.5 7.6 90 0.8 N 6 7 3 4 1022.0 1022.0 0.0
21/08:30pm 9.6 8.4 8.0 90 0.8 N 4 6 2 3 1021.8 1021.8 0.0
21/08:00pm 9.8 8.1 8.2 90 0.8 N 7 9 4 5 1021.7 - 0.0
21/07:30pm 10.0 8.3 8.4 90 0.8 N 7 9 4 5 1021.5 1021.5 0.0
21/07:00pm 10.2 8.7 8.5 89 0.8 N 6 7 3 4 1021.3 - 0.0
21/06:30pm 10.4 8.7 8.3 87 1.0 N 7 11 4 6 1021.0 1021.0 0.0
21/06:00pm 10.8 9.1 8.4 85 1.2 N 7 9 4 5 1020.8 1020.8 0.0
21/05:30pm 11.8 9.7 8.1 78 1.8 N 9 11 5 6 1020.4 1020.4 0.0
21/05:00pm 13.2 11.1 8.3 72 2.4 N 9 13 5 7 1020.4 - 0.0
21/04:30pm 13.8 12.2 8.8 72 2.5 NNE 7 9 4 5 1020.2 1020.2 0.0
21/04:00pm 15.1 13.7 9.7 70 2.8 N 7 9 4 5 1020.1 - 0.0
21/03:30pm 14.6 12.5 9.6 72 2.6 N 11 15 6 8 1020.0 1020.0 0.0
21/03:00pm 14.7 13.7 10.3 75 2.3 NE 6 11 3 6 1019.7 1019.7 0.0
21/02:30pm 15.0 13.8 10.4 74 2.4 ENE 7 11 4 6 1019.7 1019.7 0.0
21/02:00pm 14.9 13.6 10.1 73 2.5 E 7 11 4 6 1019.7 - 0.0
21/01:30pm 14.9 13.0 10.5 75 2.3 E 11 13 6 7 1019.9 1019.9 0.0
21/01:00pm 15.2 13.2 10.2 72 2.6 E 11 17 6 9 1020.2 - 0.0
21/12:30pm 16.4 13.9 9.6 64 3.5 N 13 19 7 10 1020.6 1020.6 0.0
21/12:00pm 15.1 13.0 9.9 71 2.7 NNE 11 13 6 7 1021.0 1021.0 0.0
21/11:30am 15.5 12.8 10.3 71 2.7 N 15 20 8 11 1021.5 1021.5 0.0
21/11:00am 13.7 11.6 9.6 76 2.1 N 11 19 6 10 1021.7 - 0.0
21/10:30am 13.0 10.4 9.4 79 1.8 N 13 17 7 9 1021.8 1021.8 0.0
21/10:00am 11.8 9.5 9.0 83 1.4 N 11 15 6 8 1021.8 - 0.0
21/09:30am 11.3 9.4 8.9 85 1.2 N 9 15 5 8 1021.7 1021.7 0.0
21/09:00am 8.8 6.5 7.4 91 0.7 N 9 11 5 6 1021.7 1021.7 0.0
21/08:30am 8.5 5.4 7.4 93 0.5 N 13 17 7 9 1021.5 1021.5 0.0
21/08:00am 7.6 4.8 6.9 95 0.3 N 11 13 6 7 1021.2 - 0.0
21/07:30am 7.2 3.9 6.5 95 0.3 N 13 15 7 8 1021.2 1021.2 0.0
21/07:00am 7.3 4.4 6.6 95 0.3 N 11 13 6 7 1021.1 - 0.0
21/06:30am 7.4 4.5 6.5 94 0.4 N 11 13 6 7 1020.9 1020.9 0.0
21/06:00am 7.4 4.5 6.7 95 0.3 N 11 15 6 8 1020.7 1020.7 0.0
21/05:30am 7.3 4.4 6.4 94 0.4 N 11 13 6 7 1020.6 1020.6 0.0
21/05:00am 7.5 4.6 6.6 94 0.4 N 11 13 6 7 1020.7 - 0.0
21/04:30am 7.6 4.7 6.5 93 0.5 N 11 15 6 8 1020.7 1020.7 0.0
21/04:00am 7.9 5.1 6.8 93 0.5 N 11 15 6 8 1020.9 - 0.0
21/03:30am 8.2 5.4 7.0 92 0.6 N 11 17 6 9 1021.1 1021.1 0.0
21/03:00am 8.1 5.3 7.0 93 0.5 N 11 13 6 7 1021.2 1021.2 0.0
21/02:30am 7.8 4.9 6.4 91 0.6 N 11 15 6 8 1021.3 1021.3 0.0
21/02:00am 7.7 4.7 6.2 90 0.7 N 11 13 6 7 1021.4 - 0.0
21/01:30am 7.4 4.4 5.9 90 0.7 NNE 11 15 6 8 1021.3 1021.3 0.0
21/01:00am 7.1 4.0 5.6 90 0.7 N 11 13 6 7 1021.5 - 0.0
21/12:30am 7.6 4.5 5.4 86 1.0 NNE 11 15 6 8 1022.0 1022.0 0.0
21/12:00am 7.8 5.4 5.4 85 1.1 N 7 11 4 6 1022.5 1022.5 0.0
 
Date/Time
CST
Temp
°C
App
Temp
°C
Dew
Point
Rel
Hum
%
Delta-T
°C
Wind Press
QNH
hPa
Press
MSL
hPa
Rain
since 9 am
mm
Dir
 
Spd
km/h
Gust
km/h
Spd
kts
Gust
kts
20/11:30pm 8.2 5.1 5.7 84 1.1 NNE 11 15 6 8 1022.6 1022.6 0.0
20/11:00pm 8.4 5.8 6.0 85 1.1 NNE 9 11 5 6 1022.8 - 0.0
20/10:30pm 8.2 5.3 6.5 89 0.8 NNE 11 13 6 7 1022.9 1022.9 0.0
20/10:00pm 8.7 6.2 6.7 87 0.9 NNE 9 13 5 7 1022.9 - 0.0
20/09:30pm 9.7 6.6 7.3 85 1.1 NE 13 17 7 9 1023.0 1023.0 0.0
20/09:00pm 9.7 6.0 6.2 79 1.6 NNE 15 19 8 10 1023.2 1023.2 0.0
20/08:30pm 9.6 6.4 6.7 82 1.4 NNE 13 17 7 9 1023.4 1023.4 0.0
20/08:00pm 9.0 6.4 6.3 83 1.2 NNE 9 11 5 6 1023.4 - 0.0
20/07:30pm 9.3 6.8 6.4 82 1.3 NNE 9 11 5 6 1023.4 1023.4 0.0
20/07:00pm 10.0 7.6 6.9 81 1.5 NE 9 11 5 6 1023.2 - 0.0
20/06:30pm 10.3 8.2 6.6 78 1.7 NE 7 13 4 7 1023.2 1023.2 0.0
20/06:00pm 10.1 7.7 7.0 81 1.5 NE 9 11 5 6 1023.3 1023.3 0.0
20/05:30pm 10.2 7.7 6.7 79 1.6 NE 9 11 5 6 1023.3 1023.3 0.0
20/05:00pm 10.4 8.4 6.9 79 1.7 N 7 9 4 5 1023.4 - 0.0
20/04:30pm 10.9 8.1 6.8 76 1.9 NNE 11 15 6 8 1023.3 1023.3 0.0
20/04:00pm 11.2 8.8 6.9 75 2.0 NNE 9 13 5 7 1023.2 - 0.0
20/03:30pm 11.4 8.6 6.9 74 2.1 NE 11 13 6 7 1023.0 1023.0 0.0
20/03:00pm 11.5 8.0 7.0 74 2.1 NNE 15 19 8 10 1023.0 1023.0 0.0

Other Formats:

Comma delimited format used in spreadsheet applications
http://www.bom.gov.au/fwo/IDS60801/IDS60801.95806.axf

JavaScript Object Notation format (JSON) in row-major order
http://www.bom.gov.au/fwo/IDS60801/IDS60801.95806.json